sensor_id;sensor_type;location;lat;lon;timestamp;pressure;altitude;pressure_sealevel;temperature;humidity
80624;BME280;70269;44.768;9.600;2023-06-01T00:02:02;97643.63;;;13.45;78.13
80624;BME280;70269;44.768;9.600;2023-06-01T00:04:27;97643.09;;;13.36;77.85
80624;BME280;70269;44.768;9.600;2023-06-01T00:06:53;97646.34;;;13.45;77.75
80624;BME280;70269;44.768;9.600;2023-06-01T00:09:18;97649.06;;;13.26;78.54
80624;BME280;70269;44.768;9.600;2023-06-01T00:11:44;97647.47;;;13.19;78.69
80624;BME280;70269;44.768;9.600;2023-06-01T00:14:09;97645.09;;;13.22;78.77
80624;BME280;70269;44.768;9.600;2023-06-01T00:16:35;97648.28;;;13.19;78.57
80624;BME280;70269;44.768;9.600;2023-06-01T00:19:01;97645.56;;;13.19;78.78
80624;BME280;70269;44.768;9.600;2023-06-01T00:21:29;97640.00;;;13.14;79.29
80624;BME280;70269;44.768;9.600;2023-06-01T00:23:57;97637.50;;;13.13;79.40
80624;BME280;70269;44.768;9.600;2023-06-01T00:26:23;97638.50;;;13.18;78.64
80624;BME280;70269;44.768;9.600;2023-06-01T00:28:50;97639.91;;;13.21;78.77
80624;BME280;70269;44.768;9.600;2023-06-01T00:31:15;97630.53;;;12.98;79.89
80624;BME280;70269;44.768;9.600;2023-06-01T00:33:41;97639.34;;;12.94;79.54
80624;BME280;70269;44.768;9.600;2023-06-01T00:36:07;97642.47;;;12.91;80.10
80624;BME280;70269;44.768;9.600;2023-06-01T00:38:32;97643.00;;;12.81;79.67
80624;BME280;70269;44.768;9.600;2023-06-01T00:40:58;97639.72;;;12.73;80.16
80624;BME280;70269;44.768;9.600;2023-06-01T00:43:23;97631.50;;;12.61;81.56
80624;BME280;70269;44.768;9.600;2023-06-01T00:45:49;97628.94;;;12.66;80.87
80624;BME280;70269;44.768;9.600;2023-06-01T00:48:16;97634.75;;;12.70;80.67
80624;BME280;70269;44.768;9.600;2023-06-01T00:50:43;97638.47;;;12.75;80.71
80624;BME280;70269;44.768;9.600;2023-06-01T00:53:15;97628.06;;;12.72;81.37
80624;BME280;70269;44.768;9.600;2023-06-01T00:55:41;97625.03;;;12.62;81.08
80624;BME280;70269;44.768;9.600;2023-06-01T00:58:07;97625.03;;;12.62;81.29
80624;BME280;70269;44.768;9.600;2023-06-01T01:00:32;97629.47;;;12.56;81.35
80624;BME280;70269;44.768;9.600;2023-06-01T01:02:58;97633.31;;;12.42;81.80
80624;BME280;70269;44.768;9.600;2023-06-01T01:05:26;97631.59;;;12.48;82.06
80624;BME280;70269;44.768;9.600;2023-06-01T01:08:23;97635.13;;;12.48;81.88
80624;BME280;70269;44.768;9.600;2023-06-01T01:16:25;97626.94;;;12.80;80.55
80624;BME280;70269;44.768;9.600;2023-06-01T01:21:48;97632.06;;;12.70;80.76
80624;BME280;70269;44.768;9.600;2023-06-01T01:27:23;97627.00;;;12.48;81.85
80624;BME280;70269;44.768;9.600;2023-06-01T01:29:53;97628.72;;;12.43;81.71
80624;BME280;70269;44.768;9.600;2023-06-01T01:32:20;97634.47;;;12.53;81.10
80624;BME280;70269;44.768;9.600;2023-06-01T01:34:48;97629.56;;;12.43;81.18
80624;BME280;70269;44.768;9.600;2023-06-01T01:37:14;97620.47;;;12.31;81.68
80624;BME280;70269;44.768;9.600;2023-06-01T01:39:39;97628.66;;;12.25;82.05
80624;BME280;70269;44.768;9.600;2023-06-01T01:42:05;97627.94;;;12.36;81.64
80624;BME280;70269;44.768;9.600;2023-06-01T01:44:32;97626.81;;;12.19;81.91
80624;BME280;70269;44.768;9.600;2023-06-01T01:47:05;97632.91;;;12.14;82.01
80624;BME280;70269;44.768;9.600;2023-06-01T01:49:48;97624.81;;;12.39;81.63
80624;BME280;70269;44.768;9.600;2023-06-01T01:52:22;97623.25;;;12.25;82.31
80624;BME280;70269;44.768;9.600;2023-06-01T01:54:51;97625.28;;;12.29;82.27
80624;BME280;70269;44.768;9.600;2023-06-01T01:57:17;97623.44;;;12.23;82.60
80624;BME280;70269;44.768;9.600;2023-06-01T01:59:46;97628.31;;;12.14;82.95
80624;BME280;70269;44.768;9.600;2023-06-01T02:02:12;97617.03;;;12.18;83.16
80624;BME280;70269;44.768;9.600;2023-06-01T02:04:39;97619.38;;;12.39;81.93
80624;BME280;70269;44.768;9.600;2023-06-01T02:07:07;97608.81;;;12.31;82.22
80624;BME280;70269;44.768;9.600;2023-06-01T02:09:33;97611.13;;;12.02;83.13
80624;BME280;70269;44.768;9.600;2023-06-01T02:11:59;97615.03;;;12.06;83.13
80624;BME280;70269;44.768;9.600;2023-06-01T02:14:24;97618.56;;;12.07;82.91
80624;BME280;70269;44.768;9.600;2023-06-01T02:16:50;97617.44;;;11.90;83.62
80624;BME280;70269;44.768;9.600;2023-06-01T02:19:16;97621.03;;;11.84;83.27
80624;BME280;70269;44.768;9.600;2023-06-01T02:21:43;97618.06;;;11.85;83.74
80624;BME280;70269;44.768;9.600;2023-06-01T02:24:08;97618.06;;;11.85;83.58
80624;BME280;70269;44.768;9.600;2023-06-01T02:26:36;97616.44;;;11.84;84.13
80624;BME280;70269;44.768;9.600;2023-06-01T02:29:02;97612.72;;;11.72;84.19
80624;BME280;70269;44.768;9.600;2023-06-01T02:31:31;97617.50;;;11.70;84.55
80624;BME280;70269;44.768;9.600;2023-06-01T02:33:56;97615.00;;;11.75;84.36
80624;BME280;70269;44.768;9.600;2023-06-01T02:36:22;97610.44;;;11.69;83.59
80624;BME280;70269;44.768;9.600;2023-06-01T02:38:49;97610.66;;;11.74;83.84
80624;BME280;70269;44.768;9.600;2023-06-01T02:41:15;97615.84;;;11.75;83.69
80624;BME280;70269;44.768;9.600;2023-06-01T02:43:41;97618.16;;;11.65;83.69
80624;BME280;70269;44.768;9.600;2023-06-01T02:46:06;97614.19;;;11.74;84.03
80624;BME280;70269;44.768;9.600;2023-06-01T02:48:35;97611.66;;;11.80;83.66
80624;BME280;70269;44.768;9.600;2023-06-01T02:51:01;97615.22;;;11.67;83.96
80624;BME280;70269;44.768;9.600;2023-06-01T02:53:27;97614.34;;;11.73;83.88
80624;BME280;70269;44.768;9.600;2023-06-01T02:55:54;97614.19;;;11.74;84.08
80624;BME280;70269;44.768;9.600;2023-06-01T02:58:46;97613.31;;;11.81;84.13
80624;BME280;70269;44.768;9.600;2023-06-01T03:01:31;97615.06;;;12.00;83.30
80624;BME280;70269;44.768;9.600;2023-06-01T03:04:02;97610.72;;;11.99;83.25
80624;BME280;70269;44.768;9.600;2023-06-01T03:06:33;97612.16;;;12.01;83.67
80624;BME280;70269;44.768;9.600;2023-06-01T03:09:21;97610.88;;;12.04;83.53
80624;BME280;70269;44.768;9.600;2023-06-01T03:12:18;97602.63;;;12.24;82.47
80624;BME280;70269;44.768;9.600;2023-06-01T03:14:44;97600.06;;;12.29;82.31
80624;BME280;70269;44.768;9.600;2023-06-01T03:17:10;97601.31;;;12.33;81.54
80624;BME280;70269;44.768;9.600;2023-06-01T03:19:35;97599.75;;;12.19;82.47
80624;BME280;70269;44.768;9.600;2023-06-01T03:22:09;97605.63;;;12.15;83.00
80624;BME280;70269;44.768;9.600;2023-06-01T03:24:34;97605.16;;;12.19;83.16
80624;BME280;70269;44.768;9.600;2023-06-01T03:27:02;97602.34;;;12.07;83.61
80624;BME280;70269;44.768;9.600;2023-06-01T03:29:33;97608.31;;;12.15;83.20
80624;BME280;70269;44.768;9.600;2023-06-01T03:31:59;97601.25;;;12.14;83.39
80624;BME280;70269;44.768;9.600;2023-06-01T03:34:25;97606.81;;;12.20;83.16
80624;BME280;70269;44.768;9.600;2023-06-01T03:36:53;97608.03;;;12.24;82.70
80624;BME280;70269;44.768;9.600;2023-06-01T03:39:19;97607.44;;;12.22;83.28
80624;BME280;70269;44.768;9.600;2023-06-01T03:41:45;97603.66;;;12.23;83.73
80624;BME280;70269;44.768;9.600;2023-06-01T03:44:11;97606.63;;;12.21;83.56
80624;BME280;70269;44.768;9.600;2023-06-01T03:46:39;97608.41;;;12.34;83.10
80624;BME280;70269;44.768;9.600;2023-06-01T03:49:05;97612.16;;;12.33;83.08
80624;BME280;70269;44.768;9.600;2023-06-01T03:51:31;97613.97;;;12.39;82.14
80624;BME280;70269;44.768;9.600;2023-06-01T03:53:57;97610.16;;;12.46;81.93
80624;BME280;70269;44.768;9.600;2023-06-01T03:56:22;97610.38;;;12.45;82.07
80624;BME280;70269;44.768;9.600;2023-06-01T03:58:50;97605.56;;;12.47;82.34
80624;BME280;70269;44.768;9.600;2023-06-01T04:01:16;97610.53;;;12.50;82.17
80624;BME280;70269;44.768;9.600;2023-06-01T04:03:46;97613.25;;;12.50;81.93
80624;BME280;70269;44.768;9.600;2023-06-01T04:06:14;97615.69;;;12.58;82.03
80624;BME280;70269;44.768;9.600;2023-06-01T04:08:44;97616.78;;;12.50;81.00
80624;BME280;70269;44.768;9.600;2023-06-01T04:11:17;97612.09;;;12.64;80.91
80624;BME280;70269;44.768;9.600;2023-06-01T04:13:43;97607.66;;;12.20;82.59
80624;BME280;70269;44.768;9.600;2023-06-01T04:16:10;97614.41;;;12.36;82.28
80624;BME280;70269;44.768;9.600;2023-06-01T04:18:38;97617.84;;;12.49;82.07
80624;BME280;70269;44.768;9.600;2023-06-01T04:21:04;97609.03;;;12.54;82.12
80624;BME280;70269;44.768;9.600;2023-06-01T04:23:32;97619.50;;;12.50;82.25
80624;BME280;70269;44.768;9.600;2023-06-01T04:25:58;97604.84;;;12.58;82.08
80624;BME280;70269;44.768;9.600;2023-06-01T04:28:28;97604.41;;;12.61;82.22
80624;BME280;70269;44.768;9.600;2023-06-01T04:30:55;97601.78;;;12.73;81.45
80624;BME280;70269;44.768;9.600;2023-06-01T04:33:22;97595.47;;;12.79;80.39
80624;BME280;70269;44.768;9.600;2023-06-01T04:35:51;97596.63;;;12.89;80.64
80624;BME280;70269;44.768;9.600;2023-06-01T04:38:20;97591.22;;;12.89;80.41
80624;BME280;70269;44.768;9.600;2023-06-01T04:40:47;97593.09;;;12.89;81.13
80624;BME280;70269;44.768;9.600;2023-06-01T04:43:13;97594.84;;;12.59;82.40
80624;BME280;70269;44.768;9.600;2023-06-01T04:45:45;97590.88;;;12.79;81.80
80624;BME280;70269;44.768;9.600;2023-06-01T04:48:11;97594.31;;;13.48;80.12
80624;BME280;70269;44.768;9.600;2023-06-01T04:50:47;97587.06;;;13.60;78.33
80624;BME280;70269;44.768;9.600;2023-06-01T04:53:12;97592.41;;;13.66;78.89
80624;BME280;70269;44.768;9.600;2023-06-01T04:55:39;97590.28;;;13.98;77.11
80624;BME280;70269;44.768;9.600;2023-06-01T04:58:05;97596.34;;;14.65;74.01
80624;BME280;70269;44.768;9.600;2023-06-01T05:00:32;97594.34;;;15.07;73.27
80624;BME280;70269;44.768;9.600;2023-06-01T05:02:57;97600.47;;;15.26;71.79
80624;BME280;70269;44.768;9.600;2023-06-01T05:05:23;97596.84;;;15.72;70.69
80624;BME280;70269;44.768;9.600;2023-06-01T05:07:48;97599.59;;;16.17;69.07
80624;BME280;70269;44.768;9.600;2023-06-01T05:10:16;97598.03;;;16.66;66.61
80624;BME280;70269;44.768;9.600;2023-06-01T05:12:44;97598.66;;;16.40;68.41
80624;BME280;70269;44.768;9.600;2023-06-01T05:15:11;97602.88;;;16.47;67.37
80624;BME280;70269;44.768;9.600;2023-06-01T05:17:38;97596.19;;;16.88;65.94
80624;BME280;70269;44.768;9.600;2023-06-01T05:20:08;97601.78;;;16.48;67.57
80624;BME280;70269;44.768;9.600;2023-06-01T05:22:35;97601.66;;;16.72;66.61
80624;BME280;70269;44.768;9.600;2023-06-01T05:25:01;97598.47;;;17.35;66.42
80624;BME280;70269;44.768;9.600;2023-06-01T05:27:28;97597.56;;;16.57;67.00
80624;BME280;70269;44.768;9.600;2023-06-01T05:29:53;97593.03;;;16.46;68.01
80624;BME280;70269;44.768;9.600;2023-06-01T05:32:20;97601.81;;;16.82;66.34
80624;BME280;70269;44.768;9.600;2023-06-01T05:34:45;97602.94;;;16.52;67.61
80624;BME280;70269;44.768;9.600;2023-06-01T05:37:11;97592.59;;;17.05;66.74
80624;BME280;70269;44.768;9.600;2023-06-01T05:39:38;97597.03;;;17.49;65.00
80624;BME280;70269;44.768;9.600;2023-06-01T05:42:04;97597.63;;;18.22;63.63
80624;BME280;70269;44.768;9.600;2023-06-01T05:44:35;97599.00;;;17.97;63.20
80624;BME280;70269;44.768;9.600;2023-06-01T05:47:00;97594.31;;;18.46;62.70
80624;BME280;70269;44.768;9.600;2023-06-01T05:49:26;97605.69;;;18.97;60.23
80624;BME280;70269;44.768;9.600;2023-06-01T05:51:56;97600.44;;;18.27;62.42
80624;BME280;70269;44.768;9.600;2023-06-01T05:54:22;97602.00;;;19.13;60.73
80624;BME280;70269;44.768;9.600;2023-06-01T05:56:47;97598.72;;;19.16;59.82
80624;BME280;70269;44.768;9.600;2023-06-01T05:59:14;97595.97;;;19.16;59.90
80624;BME280;70269;44.768;9.600;2023-06-01T06:01:40;97597.53;;;18.38;62.10
80624;BME280;70269;44.768;9.600;2023-06-01T06:04:06;97591.91;;;19.19;59.80
80624;BME280;70269;44.768;9.600;2023-06-01T06:06:31;97588.47;;;19.44;59.18
80624;BME280;70269;44.768;9.600;2023-06-01T06:08:57;97589.00;;;20.08;57.77
80624;BME280;70269;44.768;9.600;2023-06-01T06:11:23;97591.13;;;18.86;61.23
80624;BME280;70269;44.768;9.600;2023-06-01T06:13:48;97585.06;;;19.73;59.35
80624;BME280;70269;44.768;9.600;2023-06-01T06:16:17;97590.88;;;19.87;59.76
80624;BME280;70269;44.768;9.600;2023-06-01T06:18:42;97594.41;;;19.25;60.75
80624;BME280;70269;44.768;9.600;2023-06-01T06:21:08;97584.28;;;19.83;58.54
80624;BME280;70269;44.768;9.600;2023-06-01T06:23:33;97597.75;;;19.37;60.96
80624;BME280;70269;44.768;9.600;2023-06-01T06:25:59;97593.06;;;18.91;62.25
80624;BME280;70269;44.768;9.600;2023-06-01T06:28:25;97600.97;;;19.24;61.67
80624;BME280;70269;44.768;9.600;2023-06-01T06:30:51;97599.94;;;18.35;63.82
80624;BME280;70269;44.768;9.600;2023-06-01T06:33:17;97593.06;;;18.91;63.57
80624;BME280;70269;44.768;9.600;2023-06-01T06:35:43;97594.09;;;19.22;63.03
80624;BME280;70269;44.768;9.600;2023-06-01T06:38:11;97588.31;;;19.70;62.32
80624;BME280;70269;44.768;9.600;2023-06-01T06:40:37;97585.53;;;20.38;58.68
80624;BME280;70269;44.768;9.600;2023-06-01T06:43:02;97581.66;;;20.29;59.34
80624;BME280;70269;44.768;9.600;2023-06-01T06:45:28;97589.81;;;20.03;59.22
80624;BME280;70269;44.768;9.600;2023-06-01T06:47:53;97588.72;;;20.04;62.59
80624;BME280;70269;44.768;9.600;2023-06-01T06:50:19;97586.75;;;19.90;59.45
80624;BME280;70269;44.768;9.600;2023-06-01T06:52:45;97583.75;;;19.96;59.37
80624;BME280;70269;44.768;9.600;2023-06-01T06:55:11;97589.09;;;20.38;60.08
80624;BME280;70269;44.768;9.600;2023-06-01T06:57:36;97589.63;;;21.11;60.09
80624;BME280;70269;44.768;9.600;2023-06-01T07:00:06;97589.66;;;20.81;58.36
80624;BME280;70269;44.768;9.600;2023-06-01T07:02:32;97588.00;;;20.44;58.52
80624;BME280;70269;44.768;9.600;2023-06-01T07:04:57;97582.81;;;20.53;55.99
80624;BME280;70269;44.768;9.600;2023-06-01T07:07:23;97579.97;;;21.44;54.94
80624;BME280;70269;44.768;9.600;2023-06-01T07:09:48;97576.44;;;22.08;53.64
80624;BME280;70269;44.768;9.600;2023-06-01T07:12:14;97586.69;;;21.82;54.96
80624;BME280;70269;44.768;9.600;2023-06-01T07:14:40;97582.13;;;22.16;54.85
80624;BME280;70269;44.768;9.600;2023-06-01T07:17:05;97576.94;;;22.15;57.29
80624;BME280;70269;44.768;9.600;2023-06-01T07:19:31;97581.78;;;22.67;52.32
80624;BME280;70269;44.768;9.600;2023-06-01T07:21:59;97587.56;;;23.05;52.58
80624;BME280;70269;44.768;9.600;2023-06-01T07:24:25;97587.41;;;23.49;48.70
80624;BME280;70269;44.768;9.600;2023-06-01T07:26:51;97586.84;;;22.94;47.58
80624;BME280;70269;44.768;9.600;2023-06-01T07:29:17;97581.16;;;23.14;48.12
80624;BME280;70269;44.768;9.600;2023-06-01T07:31:43;97576.84;;;23.27;44.33
80624;BME280;70269;44.768;9.600;2023-06-01T07:34:09;97579.06;;;23.01;47.47
80624;BME280;70269;44.768;9.600;2023-06-01T07:36:34;97578.09;;;22.87;45.80
80624;BME280;70269;44.768;9.600;2023-06-01T07:39:03;97579.09;;;22.62;46.48
80624;BME280;70269;44.768;9.600;2023-06-01T07:41:32;97576.09;;;22.53;47.26
80624;BME280;70269;44.768;9.600;2023-06-01T07:43:58;97574.34;;;22.34;47.00
80624;BME280;70269;44.768;9.600;2023-06-01T07:46:23;97578.91;;;21.15;50.19
80624;BME280;70269;44.768;9.600;2023-06-01T07:48:50;97574.53;;;21.19;49.44
80624;BME280;70269;44.768;9.600;2023-06-01T07:51:15;97581.41;;;20.81;52.21
80624;BME280;70269;44.768;9.600;2023-06-01T07:53:41;97571.81;;;20.93;50.13
80624;BME280;70269;44.768;9.600;2023-06-01T07:56:07;97582.25;;;21.22;50.80
80624;BME280;70269;44.768;9.600;2023-06-01T07:58:33;97581.38;;;21.31;50.69
80624;BME280;70269;44.768;9.600;2023-06-01T08:00:58;97578.78;;;21.70;47.57
80624;BME280;70269;44.768;9.600;2023-06-01T08:03:24;97568.38;;;21.57;49.21
80624;BME280;70269;44.768;9.600;2023-06-01T08:05:51;97577.28;;;21.93;49.59
80624;BME280;70269;44.768;9.600;2023-06-01T08:08:25;97578.06;;;21.39;51.18
80624;BME280;70269;44.768;9.600;2023-06-01T08:10:51;97571.13;;;21.57;51.67
80624;BME280;70269;44.768;9.600;2023-06-01T08:13:17;97577.13;;;21.69;49.82
80624;BME280;70269;44.768;9.600;2023-06-01T08:15:44;97575.38;;;22.43;50.53
80624;BME280;70269;44.768;9.600;2023-06-01T08:18:13;97566.28;;;22.03;51.51
80624;BME280;70269;44.768;9.600;2023-06-01T08:20:39;97560.25;;;21.91;47.56
80624;BME280;70269;44.768;9.600;2023-06-01T08:23:05;97570.00;;;22.28;50.97
80624;BME280;70269;44.768;9.600;2023-06-01T08:25:31;97566.13;;;22.24;50.00
80624;BME280;70269;44.768;9.600;2023-06-01T08:27:57;97558.00;;;22.47;49.12
80624;BME280;70269;44.768;9.600;2023-06-01T08:30:25;97559.56;;;22.92;47.31
80624;BME280;70269;44.768;9.600;2023-06-01T08:32:50;97557.09;;;22.57;47.91
80624;BME280;70269;44.768;9.600;2023-06-01T08:35:16;97557.53;;;21.86;46.41
80624;BME280;70269;44.768;9.600;2023-06-01T08:37:41;97564.75;;;21.67;50.28
80624;BME280;70269;44.768;9.600;2023-06-01T08:40:07;97557.28;;;21.83;48.38
80624;BME280;70269;44.768;9.600;2023-06-01T08:42:46;97553.19;;;21.75;48.62
80624;BME280;70269;44.768;9.600;2023-06-01T08:45:17;97552.84;;;21.97;51.03
80624;BME280;70269;44.768;9.600;2023-06-01T08:47:44;97552.97;;;21.61;48.77
80624;BME280;70269;44.768;9.600;2023-06-01T08:50:11;97555.19;;;21.59;49.52
80624;BME280;70269;44.768;9.600;2023-06-01T08:52:37;97549.00;;;21.88;48.93
80624;BME280;70269;44.768;9.600;2023-06-01T08:55:04;97547.88;;;21.94;49.88
80624;BME280;70269;44.768;9.600;2023-06-01T08:57:31;97553.47;;;22.28;50.25
80624;BME280;70269;44.768;9.600;2023-06-01T08:59:57;97560.00;;;22.37;47.73
80624;BME280;70269;44.768;9.600;2023-06-01T09:02:24;97558.28;;;22.07;49.20
80624;BME280;70269;44.768;9.600;2023-06-01T09:04:51;97562.47;;;22.77;48.36
80624;BME280;70269;44.768;9.600;2023-06-01T09:07:17;97553.25;;;22.92;50.87
80624;BME280;70269;44.768;9.600;2023-06-01T09:09:43;97553.25;;;22.58;48.03
80624;BME280;70269;44.768;9.600;2023-06-01T09:12:29;97546.97;;;22.52;49.48
80624;BME280;70269;44.768;9.600;2023-06-01T09:17:35;97550.91;;;22.36;46.09
80624;BME280;70269;44.768;9.600;2023-06-01T09:20:01;97553.97;;;21.80;48.73
80624;BME280;70269;44.768;9.600;2023-06-01T09:22:44;97555.75;;;22.15;48.55
80624;BME280;70269;44.768;9.600;2023-06-01T09:25:11;97549.59;;;22.34;46.45
80624;BME280;70269;44.768;9.600;2023-06-01T09:27:50;97553.66;;;22.36;48.13
80624;BME280;70269;44.768;9.600;2023-06-01T09:30:21;97555.88;;;22.39;47.38
80624;BME280;70269;44.768;9.600;2023-06-01T09:32:49;97548.66;;;22.82;48.06
80624;BME280;70269;44.768;9.600;2023-06-01T09:35:45;97544.91;;;23.02;50.53
80624;BME280;70269;44.768;9.600;2023-06-01T09:38:12;97550.22;;;22.93;46.52
80624;BME280;70269;44.768;9.600;2023-06-01T09:40:56;97540.63;;;22.86;45.38
80624;BME280;70269;44.768;9.600;2023-06-01T09:43:22;97540.69;;;23.33;46.58
80624;BME280;70269;44.768;9.600;2023-06-01T09:46:05;97529.03;;;23.65;46.41
80624;BME280;70269;44.768;9.600;2023-06-01T09:48:31;97540.94;;;23.37;44.39
80624;BME280;70269;44.768;9.600;2023-06-01T09:50:57;97544.44;;;23.19;46.95
80624;BME280;70269;44.768;9.600;2023-06-01T09:53:22;97546.53;;;23.03;47.79
80624;BME280;70269;44.768;9.600;2023-06-01T09:55:58;97536.41;;;22.59;46.48
80624;BME280;70269;44.768;9.600;2023-06-01T09:58:25;97532.81;;;22.30;47.57
80624;BME280;70269;44.768;9.600;2023-06-01T10:00:51;97531.34;;;22.72;48.66
80624;BME280;70269;44.768;9.600;2023-06-01T10:03:18;97523.41;;;22.36;45.47
80624;BME280;70269;44.768;9.600;2023-06-01T10:05:45;97532.16;;;22.09;46.96
80624;BME280;70269;44.768;9.600;2023-06-01T10:08:12;97526.09;;;22.41;48.81
80624;BME280;70269;44.768;9.600;2023-06-01T10:10:40;97525.75;;;22.87;47.84
80624;BME280;70269;44.768;9.600;2023-06-01T10:13:07;97533.88;;;22.34;49.88
80624;BME280;70269;44.768;9.600;2023-06-01T10:15:33;97535.22;;;21.98;47.05
80624;BME280;70269;44.768;9.600;2023-06-01T10:18:04;97525.59;;;21.41;48.83
80624;BME280;70269;44.768;9.600;2023-06-01T10:20:34;97524.84;;;21.79;48.47
80624;BME280;70269;44.768;9.600;2023-06-01T10:23:01;97519.50;;;22.42;52.22
80624;BME280;70269;44.768;9.600;2023-06-01T10:25:35;97531.28;;;22.48;48.10
80624;BME280;70269;44.768;9.600;2023-06-01T10:28:05;97520.03;;;22.44;47.29
80624;BME280;70269;44.768;9.600;2023-06-01T10:30:34;97519.41;;;22.57;45.83
80624;BME280;70269;44.768;9.600;2023-06-01T10:33:00;97520.78;;;22.21;46.87
80624;BME280;70269;44.768;9.600;2023-06-01T10:40:41;97514.34;;;21.97;51.03
80624;BME280;70269;44.768;9.600;2023-06-01T10:43:07;97514.88;;;22.38;48.15
80624;BME280;70269;44.768;9.600;2023-06-01T10:48:03;97509.81;;;22.50;49.99
80624;BME280;70269;44.768;9.600;2023-06-01T10:50:30;97526.34;;;22.11;49.56
80624;BME280;70269;44.768;9.600;2023-06-01T10:52:56;97512.06;;;22.04;47.93
80624;BME280;70269;44.768;9.600;2023-06-01T10:55:42;97506.00;;;22.46;47.25
80624;BME280;70269;44.768;9.600;2023-06-01T10:58:20;97507.03;;;22.84;49.60
80624;BME280;70269;44.768;9.600;2023-06-01T11:00:49;97509.03;;;22.78;49.37
80624;BME280;70269;44.768;9.600;2023-06-01T11:03:43;97501.72;;;22.92;47.62
80624;BME280;70269;44.768;9.600;2023-06-01T11:06:29;97497.66;;;22.56;48.75
80624;BME280;70269;44.768;9.600;2023-06-01T11:08:58;97487.91;;;22.40;49.24
80624;BME280;70269;44.768;9.600;2023-06-01T11:14:23;97495.81;;;22.46;48.56
80624;BME280;70269;44.768;9.600;2023-06-01T11:16:50;97495.44;;;22.58;49.90
80624;BME280;70269;44.768;9.600;2023-06-01T11:19:24;97498.28;;;23.06;46.62
80624;BME280;70269;44.768;9.600;2023-06-01T11:21:59;97490.72;;;22.92;44.53
80624;BME280;70269;44.768;9.600;2023-06-01T11:24:34;97489.34;;;22.90;47.55
80624;BME280;70269;44.768;9.600;2023-06-01T11:27:05;97498.50;;;22.85;48.92
80624;BME280;70269;44.768;9.600;2023-06-01T11:29:31;97491.16;;;22.76;50.68
80624;BME280;70269;44.768;9.600;2023-06-01T11:32:00;97492.75;;;22.82;46.38
80624;BME280;70269;44.768;9.600;2023-06-01T11:34:37;97474.25;;;22.87;47.57
80624;BME280;70269;44.768;9.600;2023-06-01T11:37:13;97477.97;;;22.73;46.03
80624;BME280;70269;44.768;9.600;2023-06-01T11:39:39;97471.03;;;23.04;48.07
80624;BME280;70269;44.768;9.600;2023-06-01T11:42:13;97463.47;;;23.62;46.30
80624;BME280;70269;44.768;9.600;2023-06-01T11:44:44;97461.06;;;23.32;46.63
80624;BME280;70269;44.768;9.600;2023-06-01T11:47:11;97465.28;;;22.72;46.53
80624;BME280;70269;44.768;9.600;2023-06-01T11:49:47;97461.19;;;22.06;48.15
80624;BME280;70269;44.768;9.600;2023-06-01T11:52:15;97460.03;;;22.12;46.99
80624;BME280;70269;44.768;9.600;2023-06-01T11:54:40;97453.75;;;22.07;48.01
80624;BME280;70269;44.768;9.600;2023-06-01T11:57:06;97459.03;;;21.93;48.04
80624;BME280;70269;44.768;9.600;2023-06-01T11:59:44;97448.91;;;21.89;47.56
80624;BME280;70269;44.768;9.600;2023-06-01T12:02:19;97455.75;;;21.91;47.65
80624;BME280;70269;44.768;9.600;2023-06-01T12:05:05;97447.50;;;22.30;48.52
80624;BME280;70269;44.768;9.600;2023-06-01T12:07:49;97442.88;;;22.54;48.92
80624;BME280;70269;44.768;9.600;2023-06-01T12:10:19;97440.25;;;22.73;47.52
80624;BME280;70269;44.768;9.600;2023-06-01T12:12:46;97437.75;;;22.77;47.88
80624;BME280;70269;44.768;9.600;2023-06-01T12:15:14;97436.75;;;22.34;47.26
80624;BME280;70269;44.768;9.600;2023-06-01T12:17:49;97437.03;;;22.32;47.26
80624;BME280;70269;44.768;9.600;2023-06-01T12:20:34;97420.81;;;22.59;47.25
80624;BME280;70269;44.768;9.600;2023-06-01T12:23:23;97425.13;;;22.71;44.08
80624;BME280;70269;44.768;9.600;2023-06-01T12:28:15;97415.91;;;22.56;45.84
80624;BME280;70269;44.768;9.600;2023-06-01T12:30:41;97411.97;;;22.63;41.85
80624;BME280;70269;44.768;9.600;2023-06-01T12:33:06;97408.06;;;22.69;43.88
80624;BME280;70269;44.768;9.600;2023-06-01T12:35:32;97401.59;;;23.07;47.15
80624;BME280;70269;44.768;9.600;2023-06-01T12:38:09;97402.16;;;23.04;44.57
80624;BME280;70269;44.768;9.600;2023-06-01T12:40:36;97409.31;;;23.05;46.50
80624;BME280;70269;44.768;9.600;2023-06-01T12:43:03;97412.44;;;22.98;46.33
80624;BME280;70269;44.768;9.600;2023-06-01T12:45:38;97410.81;;;22.69;46.14
80624;BME280;70269;44.768;9.600;2023-06-01T12:48:04;97408.88;;;22.69;45.91
80624;BME280;70269;44.768;9.600;2023-06-01T12:50:30;97407.56;;;22.62;44.60
80624;BME280;70269;44.768;9.600;2023-06-01T12:52:56;97403.78;;;22.57;47.27
80624;BME280;70269;44.768;9.600;2023-06-01T12:55:22;97395.66;;;22.42;46.27
80624;BME280;70269;44.768;9.600;2023-06-01T12:57:55;97395.72;;;22.37;46.93
80624;BME280;70269;44.768;9.600;2023-06-01T13:00:21;97393.28;;;22.02;47.12
80624;BME280;70269;44.768;9.600;2023-06-01T13:02:47;97387.31;;;21.90;48.20
80624;BME280;70269;44.768;9.600;2023-06-01T13:05:16;97382.03;;;21.93;47.37
80624;BME280;70269;44.768;9.600;2023-06-01T13:07:43;97385.00;;;22.07;47.35
80624;BME280;70269;44.768;9.600;2023-06-01T13:10:10;97388.97;;;22.25;46.41
80624;BME280;70269;44.768;9.600;2023-06-01T13:12:35;97381.81;;;22.24;46.24
80624;BME280;70269;44.768;9.600;2023-06-01T13:15:01;97373.03;;;22.50;48.12
80624;BME280;70269;44.768;9.600;2023-06-01T13:17:28;97366.00;;;22.63;45.59
80624;BME280;70269;44.768;9.600;2023-06-01T13:19:54;97360.31;;;22.54;44.89
80624;BME280;70269;44.768;9.600;2023-06-01T13:22:19;97365.59;;;22.51;45.56
80624;BME280;70269;44.768;9.600;2023-06-01T13:24:47;97364.56;;;22.66;45.93
80624;BME280;70269;44.768;9.600;2023-06-01T13:27:13;97356.97;;;22.57;47.08
80624;BME280;70269;44.768;9.600;2023-06-01T13:29:39;97354.63;;;22.70;45.15
80624;BME280;70269;44.768;9.600;2023-06-01T13:32:05;97344.13;;;22.72;46.43
80624;BME280;70269;44.768;9.600;2023-06-01T13:34:31;97348.25;;;22.50;42.80